Terminal Aerodrome Forecast
Issued by NWS

Home | Current Version | Previous Version | Text Only | Print | Product List | Glossary On
Versions: 1 2 3 4 5 6 7 8 9 10 11 12 13 14
000
FTUS41 KAKQ 280436 AAA
TAFPHF
TAF AMD
KPHF 280436Z 2805/2824 21011KT P6SM VCTS SCT050CB BKN080
     FM280600 20008KT P6SM VCSH BKN040 BKN080
     FM281000 24007KT P6SM OVC080
     FM281800 24010KT 4SM SHRA BR OVC015=

USA.gov is the U.S. government's official web portal to all federal, state and local government web resources and services.